sensor_id;sensor_type;location;lat;lon;timestamp;P1;durP1;ratioP1;P2;durP2;ratioP2
12356;SDS011;6243;51.244;6.774;2023-03-18T00:00:57;5.77;;;3.80;;
12356;SDS011;6243;51.244;6.774;2023-03-18T00:03:23;5.97;;;3.97;;
12356;SDS011;6243;51.244;6.774;2023-03-18T00:05:48;9.43;;;3.80;;
12356;SDS011;6243;51.244;6.774;2023-03-18T00:08:15;5.43;;;3.70;;
12356;SDS011;6243;51.244;6.774;2023-03-18T00:10:41;4.40;;;3.30;;
12356;SDS011;6243;51.244;6.774;2023-03-18T00:13:07;4.53;;;3.70;;
12356;SDS011;6243;51.244;6.774;2023-03-18T00:15:32;5.33;;;3.40;;
12356;SDS011;6243;51.244;6.774;2023-03-18T00:17:58;8.00;;;3.83;;
12356;SDS011;6243;51.244;6.774;2023-03-18T00:20:23;6.53;;;3.60;;
12356;SDS011;6243;51.244;6.774;2023-03-18T00:22:49;5.40;;;3.83;;
12356;SDS011;6243;51.244;6.774;2023-03-18T00:25:16;7.03;;;3.23;;
12356;SDS011;6243;51.244;6.774;2023-03-18T00:27:42;8.43;;;4.27;;
12356;SDS011;6243;51.244;6.774;2023-03-18T00:30:07;6.60;;;4.43;;
12356;SDS011;6243;51.244;6.774;2023-03-18T00:32:34;10.00;;;4.30;;
12356;SDS011;6243;51.244;6.774;2023-03-18T00:35:00;9.40;;;4.13;;
12356;SDS011;6243;51.244;6.774;2023-03-18T00:37:26;6.43;;;4.13;;
12356;SDS011;6243;51.244;6.774;2023-03-18T00:39:52;7.20;;;4.20;;
12356;SDS011;6243;51.244;6.774;2023-03-18T00:42:18;7.07;;;4.50;;
12356;SDS011;6243;51.244;6.774;2023-03-18T00:44:44;6.57;;;4.00;;
12356;SDS011;6243;51.244;6.774;2023-03-18T00:47:10;8.47;;;4.03;;
12356;SDS011;6243;51.244;6.774;2023-03-18T00:49:35;8.47;;;4.37;;
12356;SDS011;6243;51.244;6.774;2023-03-18T00:52:01;6.83;;;4.53;;
12356;SDS011;6243;51.244;6.774;2023-03-18T00:54:26;7.13;;;4.20;;
12356;SDS011;6243;51.244;6.774;2023-03-18T00:56:52;5.47;;;4.00;;
12356;SDS011;6243;51.244;6.774;2023-03-18T00:59:19;7.93;;;4.30;;
12356;SDS011;6243;51.244;6.774;2023-03-18T01:01:44;8.60;;;4.30;;
12356;SDS011;6243;51.244;6.774;2023-03-18T01:04:10;7.27;;;4.23;;
12356;SDS011;6243;51.244;6.774;2023-03-18T01:06:36;9.37;;;4.20;;
12356;SDS011;6243;51.244;6.774;2023-03-18T01:09:02;6.37;;;4.10;;
12356;SDS011;6243;51.244;6.774;2023-03-18T01:11:29;6.33;;;4.47;;
12356;SDS011;6243;51.244;6.774;2023-03-18T01:13:55;7.60;;;4.93;;
12356;SDS011;6243;51.244;6.774;2023-03-18T01:16:22;9.33;;;4.70;;
12356;SDS011;6243;51.244;6.774;2023-03-18T01:18:48;7.17;;;4.50;;
12356;SDS011;6243;51.244;6.774;2023-03-18T01:21:14;7.00;;;4.57;;
12356;SDS011;6243;51.244;6.774;2023-03-18T01:23:39;7.00;;;4.60;;
12356;SDS011;6243;51.244;6.774;2023-03-18T01:26:05;5.17;;;4.37;;
12356;SDS011;6243;51.244;6.774;2023-03-18T01:28:31;6.80;;;4.30;;
12356;SDS011;6243;51.244;6.774;2023-03-18T01:30:57;7.70;;;4.53;;
12356;SDS011;6243;51.244;6.774;2023-03-18T01:33:24;7.27;;;4.13;;
12356;SDS011;6243;51.244;6.774;2023-03-18T01:35:52;8.77;;;4.00;;
12356;SDS011;6243;51.244;6.774;2023-03-18T01:38:18;7.10;;;4.30;;
12356;SDS011;6243;51.244;6.774;2023-03-18T01:40:44;6.03;;;4.20;;
12356;SDS011;6243;51.244;6.774;2023-03-18T01:43:13;5.53;;;4.50;;
12356;SDS011;6243;51.244;6.774;2023-03-18T01:45:41;10.27;;;5.07;;
12356;SDS011;6243;51.244;6.774;2023-03-18T01:48:13;5.77;;;4.20;;
12356;SDS011;6243;51.244;6.774;2023-03-18T01:50:41;10.93;;;4.57;;
12356;SDS011;6243;51.244;6.774;2023-03-18T01:53:09;7.63;;;5.07;;
12356;SDS011;6243;51.244;6.774;2023-03-18T01:55:38;6.33;;;4.13;;
12356;SDS011;6243;51.244;6.774;2023-03-18T01:58:05;5.97;;;3.97;;
12356;SDS011;6243;51.244;6.774;2023-03-18T02:00:34;8.53;;;4.87;;
12356;SDS011;6243;51.244;6.774;2023-03-18T02:03:03;5.63;;;4.20;;
12356;SDS011;6243;51.244;6.774;2023-03-18T02:05:29;6.80;;;4.10;;
12356;SDS011;6243;51.244;6.774;2023-03-18T02:07:56;7.57;;;4.33;;
12356;SDS011;6243;51.244;6.774;2023-03-18T02:10:23;6.13;;;4.27;;
12356;SDS011;6243;51.244;6.774;2023-03-18T02:12:50;7.07;;;5.27;;
12356;SDS011;6243;51.244;6.774;2023-03-18T02:15:20;8.03;;;5.07;;
12356;SDS011;6243;51.244;6.774;2023-03-18T02:17:48;6.03;;;4.47;;
12356;SDS011;6243;51.244;6.774;2023-03-18T02:20:23;6.23;;;4.80;;
12356;SDS011;6243;51.244;6.774;2023-03-18T02:22:55;10.73;;;4.93;;
12356;SDS011;6243;51.244;6.774;2023-03-18T02:25:30;7.87;;;4.80;;
12356;SDS011;6243;51.244;6.774;2023-03-18T02:28:02;6.87;;;4.77;;
12356;SDS011;6243;51.244;6.774;2023-03-18T02:30:33;6.43;;;4.87;;
12356;SDS011;6243;51.244;6.774;2023-03-18T02:33:02;7.57;;;4.77;;
12356;SDS011;6243;51.244;6.774;2023-03-18T02:35:29;7.70;;;5.10;;
12356;SDS011;6243;51.244;6.774;2023-03-18T02:37:56;7.90;;;5.23;;
12356;SDS011;6243;51.244;6.774;2023-03-18T02:40:23;7.20;;;4.97;;
12356;SDS011;6243;51.244;6.774;2023-03-18T02:42:50;7.87;;;4.80;;
12356;SDS011;6243;51.244;6.774;2023-03-18T02:45:21;9.73;;;5.13;;
12356;SDS011;6243;51.244;6.774;2023-03-18T02:47:57;7.80;;;5.80;;
12356;SDS011;6243;51.244;6.774;2023-03-18T02:50:25;7.17;;;5.33;;
12356;SDS011;6243;51.244;6.774;2023-03-18T02:52:51;8.37;;;5.60;;
12356;SDS011;6243;51.244;6.774;2023-03-18T02:55:16;9.43;;;5.90;;
12356;SDS011;6243;51.244;6.774;2023-03-18T02:57:42;9.27;;;6.00;;
12356;SDS011;6243;51.244;6.774;2023-03-18T03:00:08;10.67;;;6.27;;
12356;SDS011;6243;51.244;6.774;2023-03-18T03:02:36;10.77;;;6.27;;
12356;SDS011;6243;51.244;6.774;2023-03-18T03:05:01;7.97;;;6.17;;
12356;SDS011;6243;51.244;6.774;2023-03-18T03:07:27;8.20;;;5.97;;
12356;SDS011;6243;51.244;6.774;2023-03-18T03:09:53;8.30;;;5.63;;
12356;SDS011;6243;51.244;6.774;2023-03-18T03:12:19;9.47;;;5.77;;
12356;SDS011;6243;51.244;6.774;2023-03-18T03:14:44;10.50;;;6.27;;
12356;SDS011;6243;51.244;6.774;2023-03-18T03:17:10;7.20;;;5.23;;
12356;SDS011;6243;51.244;6.774;2023-03-18T03:19:37;8.77;;;5.43;;
12356;SDS011;6243;51.244;6.774;2023-03-18T03:22:02;6.63;;;5.40;;
12356;SDS011;6243;51.244;6.774;2023-03-18T03:24:28;8.77;;;5.73;;
12356;SDS011;6243;51.244;6.774;2023-03-18T03:26:53;8.20;;;5.80;;
12356;SDS011;6243;51.244;6.774;2023-03-18T03:29:19;12.50;;;6.10;;
12356;SDS011;6243;51.244;6.774;2023-03-18T03:31:44;9.07;;;6.00;;
12356;SDS011;6243;51.244;6.774;2023-03-18T03:34:10;9.07;;;6.10;;
12356;SDS011;6243;51.244;6.774;2023-03-18T03:36:36;10.63;;;6.00;;
12356;SDS011;6243;51.244;6.774;2023-03-18T03:39:02;9.37;;;5.80;;
12356;SDS011;6243;51.244;6.774;2023-03-18T03:41:28;7.27;;;5.90;;
12356;SDS011;6243;51.244;6.774;2023-03-18T03:43:53;10.00;;;6.50;;
12356;SDS011;6243;51.244;6.774;2023-03-18T03:46:19;10.60;;;6.53;;
12356;SDS011;6243;51.244;6.774;2023-03-18T03:48:44;9.60;;;6.50;;
12356;SDS011;6243;51.244;6.774;2023-03-18T03:51:11;8.30;;;5.97;;
12356;SDS011;6243;51.244;6.774;2023-03-18T03:53:38;9.63;;;6.87;;
12356;SDS011;6243;51.244;6.774;2023-03-18T03:56:03;9.40;;;5.87;;
12356;SDS011;6243;51.244;6.774;2023-03-18T03:58:29;10.70;;;6.43;;
12356;SDS011;6243;51.244;6.774;2023-03-18T04:00:55;13.60;;;6.77;;
12356;SDS011;6243;51.244;6.774;2023-03-18T04:03:20;8.97;;;6.57;;
12356;SDS011;6243;51.244;6.774;2023-03-18T04:05:46;10.53;;;6.77;;
12356;SDS011;6243;51.244;6.774;2023-03-18T04:08:11;12.20;;;7.37;;
12356;SDS011;6243;51.244;6.774;2023-03-18T04:10:38;9.63;;;6.87;;
12356;SDS011;6243;51.244;6.774;2023-03-18T04:13:04;7.97;;;6.87;;
12356;SDS011;6243;51.244;6.774;2023-03-18T04:15:29;8.57;;;6.90;;
12356;SDS011;6243;51.244;6.774;2023-03-18T04:17:55;9.70;;;6.47;;
12356;SDS011;6243;51.244;6.774;2023-03-18T04:20:20;11.27;;;6.57;;
12356;SDS011;6243;51.244;6.774;2023-03-18T04:22:46;11.67;;;6.63;;
12356;SDS011;6243;51.244;6.774;2023-03-18T04:25:12;9.87;;;6.80;;
12356;SDS011;6243;51.244;6.774;2023-03-18T04:27:39;11.13;;;6.50;;
12356;SDS011;6243;51.244;6.774;2023-03-18T04:30:06;10.13;;;7.20;;
12356;SDS011;6243;51.244;6.774;2023-03-18T04:32:33;7.93;;;6.20;;
12356;SDS011;6243;51.244;6.774;2023-03-18T04:34:59;12.10;;;7.40;;
12356;SDS011;6243;51.244;6.774;2023-03-18T04:37:24;11.77;;;7.63;;
12356;SDS011;6243;51.244;6.774;2023-03-18T04:39:50;10.33;;;6.50;;
12356;SDS011;6243;51.244;6.774;2023-03-18T04:42:15;9.90;;;6.63;;
12356;SDS011;6243;51.244;6.774;2023-03-18T04:44:42;7.80;;;6.10;;
12356;SDS011;6243;51.244;6.774;2023-03-18T04:47:08;8.27;;;6.30;;
12356;SDS011;6243;51.244;6.774;2023-03-18T04:49:33;9.73;;;6.30;;
12356;SDS011;6243;51.244;6.774;2023-03-18T04:51:59;8.83;;;6.50;;
12356;SDS011;6243;51.244;6.774;2023-03-18T04:54:24;8.93;;;6.73;;
12356;SDS011;6243;51.244;6.774;2023-03-18T04:56:50;8.30;;;6.27;;
12356;SDS011;6243;51.244;6.774;2023-03-18T04:59:15;7.67;;;6.47;;
12356;SDS011;6243;51.244;6.774;2023-03-18T05:01:42;10.53;;;6.60;;
12356;SDS011;6243;51.244;6.774;2023-03-18T05:04:08;9.43;;;6.37;;
12356;SDS011;6243;51.244;6.774;2023-03-18T05:06:33;10.07;;;6.00;;
12356;SDS011;6243;51.244;6.774;2023-03-18T05:08:59;7.33;;;6.23;;
12356;SDS011;6243;51.244;6.774;2023-03-18T05:11:25;8.07;;;5.73;;
12356;SDS011;6243;51.244;6.774;2023-03-18T05:13:51;7.40;;;6.10;;
12356;SDS011;6243;51.244;6.774;2023-03-18T05:16:17;5.87;;;5.23;;
12356;SDS011;6243;51.244;6.774;2023-03-18T05:18:44;7.37;;;5.23;;
12356;SDS011;6243;51.244;6.774;2023-03-18T05:21:09;6.47;;;5.30;;
12356;SDS011;6243;51.244;6.774;2023-03-18T05:23:35;7.90;;;5.53;;
12356;SDS011;6243;51.244;6.774;2023-03-18T05:26:01;7.27;;;5.90;;
12356;SDS011;6243;51.244;6.774;2023-03-18T05:28:26;8.50;;;5.77;;
12356;SDS011;6243;51.244;6.774;2023-03-18T05:30:52;7.93;;;5.83;;
12356;SDS011;6243;51.244;6.774;2023-03-18T05:33:18;7.10;;;5.50;;
12356;SDS011;6243;51.244;6.774;2023-03-18T05:35:45;9.53;;;5.97;;
12356;SDS011;6243;51.244;6.774;2023-03-18T05:38:10;8.63;;;6.17;;
12356;SDS011;6243;51.244;6.774;2023-03-18T05:40:36;8.20;;;5.33;;
12356;SDS011;6243;51.244;6.774;2023-03-18T05:43:01;7.83;;;5.40;;
12356;SDS011;6243;51.244;6.774;2023-03-18T05:45:27;8.83;;;6.53;;
12356;SDS011;6243;51.244;6.774;2023-03-18T05:47:52;7.07;;;5.80;;
12356;SDS011;6243;51.244;6.774;2023-03-18T05:50:26;9.17;;;6.33;;
12356;SDS011;6243;51.244;6.774;2023-03-18T05:52:53;9.57;;;6.07;;
12356;SDS011;6243;51.244;6.774;2023-03-18T05:55:19;7.27;;;6.13;;
12356;SDS011;6243;51.244;6.774;2023-03-18T05:57:44;10.30;;;6.47;;
12356;SDS011;6243;51.244;6.774;2023-03-18T06:00:10;8.80;;;6.43;;
12356;SDS011;6243;51.244;6.774;2023-03-18T06:02:36;9.53;;;6.23;;
12356;SDS011;6243;51.244;6.774;2023-03-18T06:05:02;7.17;;;5.60;;
12356;SDS011;6243;51.244;6.774;2023-03-18T06:07:28;5.00;;;4.50;;
12356;SDS011;6243;51.244;6.774;2023-03-18T06:09:54;6.20;;;5.13;;
12356;SDS011;6243;51.244;6.774;2023-03-18T06:12:20;6.83;;;5.00;;
12356;SDS011;6243;51.244;6.774;2023-03-18T06:14:45;7.23;;;5.40;;
12356;SDS011;6243;51.244;6.774;2023-03-18T06:17:11;8.93;;;5.80;;
12356;SDS011;6243;51.244;6.774;2023-03-18T06:19:36;6.13;;;5.53;;
12356;SDS011;6243;51.244;6.774;2023-03-18T06:22:02;7.43;;;5.63;;
12356;SDS011;6243;51.244;6.774;2023-03-18T06:24:27;7.40;;;5.23;;
12356;SDS011;6243;51.244;6.774;2023-03-18T06:26:54;6.40;;;4.77;;
12356;SDS011;6243;51.244;6.774;2023-03-18T06:29:20;6.53;;;4.83;;
12356;SDS011;6243;51.244;6.774;2023-03-18T06:31:45;5.53;;;5.03;;
12356;SDS011;6243;51.244;6.774;2023-03-18T06:34:11;8.13;;;5.43;;
12356;SDS011;6243;51.244;6.774;2023-03-18T06:36:36;6.90;;;5.47;;
12356;SDS011;6243;51.244;6.774;2023-03-18T06:39:02;5.97;;;4.97;;
12356;SDS011;6243;51.244;6.774;2023-03-18T06:41:27;6.10;;;5.10;;
12356;SDS011;6243;51.244;6.774;2023-03-18T06:43:54;5.60;;;4.83;;
12356;SDS011;6243;51.244;6.774;2023-03-18T06:46:20;7.13;;;5.00;;
12356;SDS011;6243;51.244;6.774;2023-03-18T06:48:45;6.93;;;5.17;;
12356;SDS011;6243;51.244;6.774;2023-03-18T06:51:10;7.70;;;4.77;;
12356;SDS011;6243;51.244;6.774;2023-03-18T06:53:36;5.50;;;4.90;;
12356;SDS011;6243;51.244;6.774;2023-03-18T06:56:02;6.93;;;5.03;;
12356;SDS011;6243;51.244;6.774;2023-03-18T06:58:27;6.30;;;5.07;;
12356;SDS011;6243;51.244;6.774;2023-03-18T07:00:54;8.33;;;5.53;;
12356;SDS011;6243;51.244;6.774;2023-03-18T07:03:20;6.67;;;5.33;;
12356;SDS011;6243;51.244;6.774;2023-03-18T07:05:45;6.73;;;5.30;;
12356;SDS011;6243;51.244;6.774;2023-03-18T07:08:11;7.37;;;5.70;;
12356;SDS011;6243;51.244;6.774;2023-03-18T07:10:36;7.67;;;5.37;;
12356;SDS011;6243;51.244;6.774;2023-03-18T07:13:02;7.43;;;5.40;;
12356;SDS011;6243;51.244;6.774;2023-03-18T07:15:27;5.33;;;4.80;;
12356;SDS011;6243;51.244;6.774;2023-03-18T07:17:54;6.53;;;5.83;;
12356;SDS011;6243;51.244;6.774;2023-03-18T07:20:20;9.50;;;5.80;;
12356;SDS011;6243;51.244;6.774;2023-03-18T07:22:45;8.53;;;5.40;;
12356;SDS011;6243;51.244;6.774;2023-03-18T07:25:13;9.43;;;6.13;;
12356;SDS011;6243;51.244;6.774;2023-03-18T07:27:38;6.73;;;5.80;;
12356;SDS011;6243;51.244;6.774;2023-03-18T07:30:05;7.87;;;5.13;;
12356;SDS011;6243;51.244;6.774;2023-03-18T07:32:31;7.83;;;5.33;;
12356;SDS011;6243;51.244;6.774;2023-03-18T07:34:58;9.40;;;5.00;;
12356;SDS011;6243;51.244;6.774;2023-03-18T07:37:24;7.30;;;5.27;;
12356;SDS011;6243;51.244;6.774;2023-03-18T07:39:49;9.17;;;5.43;;
12356;SDS011;6243;51.244;6.774;2023-03-18T07:42:15;6.60;;;4.90;;
12356;SDS011;6243;51.244;6.774;2023-03-18T07:44:40;7.27;;;5.03;;
12356;SDS011;6243;51.244;6.774;2023-03-18T07:47:06;6.33;;;4.30;;
12356;SDS011;6243;51.244;6.774;2023-03-18T07:49:31;6.53;;;4.60;;
12356;SDS011;6243;51.244;6.774;2023-03-18T07:51:58;5.47;;;4.53;;
12356;SDS011;6243;51.244;6.774;2023-03-18T07:54:24;7.43;;;4.57;;
12356;SDS011;6243;51.244;6.774;2023-03-18T07:56:49;7.57;;;4.53;;
12356;SDS011;6243;51.244;6.774;2023-03-18T07:59:15;5.80;;;4.67;;
12356;SDS011;6243;51.244;6.774;2023-03-18T08:01:41;6.77;;;4.63;;
12356;SDS011;6243;51.244;6.774;2023-03-18T08:04:06;5.93;;;4.40;;
12356;SDS011;6243;51.244;6.774;2023-03-18T08:06:32;6.90;;;4.60;;
12356;SDS011;6243;51.244;6.774;2023-03-18T08:08:59;6.07;;;5.03;;
12356;SDS011;6243;51.244;6.774;2023-03-18T08:11:24;6.67;;;4.60;;
12356;SDS011;6243;51.244;6.774;2023-03-18T08:13:50;6.80;;;4.57;;
12356;SDS011;6243;51.244;6.774;2023-03-18T08:16:15;6.20;;;4.37;;
12356;SDS011;6243;51.244;6.774;2023-03-18T08:18:41;6.17;;;3.87;;
12356;SDS011;6243;51.244;6.774;2023-03-18T08:21:06;4.80;;;3.83;;
12356;SDS011;6243;51.244;6.774;2023-03-18T08:23:32;4.93;;;3.83;;
12356;SDS011;6243;51.244;6.774;2023-03-18T08:25:59;4.97;;;4.40;;
12356;SDS011;6243;51.244;6.774;2023-03-18T08:28:24;5.30;;;3.40;;
12356;SDS011;6243;51.244;6.774;2023-03-18T08:30:52;7.27;;;4.00;;
12356;SDS011;6243;51.244;6.774;2023-03-18T08:33:18;5.50;;;3.47;;
12356;SDS011;6243;51.244;6.774;2023-03-18T08:35:43;3.33;;;2.90;;
12356;SDS011;6243;51.244;6.774;2023-03-18T08:38:09;5.73;;;3.10;;
12356;SDS011;6243;51.244;6.774;2023-03-18T08:40:38;3.20;;;2.87;;
12356;SDS011;6243;51.244;6.774;2023-03-18T08:43:05;5.37;;;3.30;;
12356;SDS011;6243;51.244;6.774;2023-03-18T08:45:31;3.90;;;2.80;;
12356;SDS011;6243;51.244;6.774;2023-03-18T08:47:56;4.20;;;3.10;;
12356;SDS011;6243;51.244;6.774;2023-03-18T08:50:22;3.33;;;2.90;;
12356;SDS011;6243;51.244;6.774;2023-03-18T08:52:47;3.40;;;2.80;;
12356;SDS011;6243;51.244;6.774;2023-03-18T08:55:13;4.60;;;3.07;;
12356;SDS011;6243;51.244;6.774;2023-03-18T08:57:38;4.13;;;3.00;;
12356;SDS011;6243;51.244;6.774;2023-03-18T09:00:06;3.33;;;2.70;;
12356;SDS011;6243;51.244;6.774;2023-03-18T09:02:32;3.43;;;2.80;;
12356;SDS011;6243;51.244;6.774;2023-03-18T09:04:57;4.37;;;3.03;;
12356;SDS011;6243;51.244;6.774;2023-03-18T09:07:23;3.37;;;3.07;;
12356;SDS011;6243;51.244;6.774;2023-03-18T09:09:48;5.97;;;3.30;;
12356;SDS011;6243;51.244;6.774;2023-03-18T09:12:14;4.77;;;3.13;;
12356;SDS011;6243;51.244;6.774;2023-03-18T09:14:40;4.97;;;3.00;;
12356;SDS011;6243;51.244;6.774;2023-03-18T09:17:07;4.40;;;3.07;;
12356;SDS011;6243;51.244;6.774;2023-03-18T09:19:33;5.53;;;3.07;;
12356;SDS011;6243;51.244;6.774;2023-03-18T09:21:59;3.63;;;3.13;;
12356;SDS011;6243;51.244;6.774;2023-03-18T09:24:24;4.23;;;2.93;;
12356;SDS011;6243;51.244;6.774;2023-03-18T09:26:50;4.40;;;2.90;;
12356;SDS011;6243;51.244;6.774;2023-03-18T09:29:16;2.83;;;2.23;;
12356;SDS011;6243;51.244;6.774;2023-03-18T09:31:41;4.83;;;3.00;;
12356;SDS011;6243;51.244;6.774;2023-03-18T09:34:08;4.43;;;3.10;;
12356;SDS011;6243;51.244;6.774;2023-03-18T09:36:34;4.73;;;3.00;;
12356;SDS011;6243;51.244;6.774;2023-03-18T09:38:59;4.47;;;2.90;;
12356;SDS011;6243;51.244;6.774;2023-03-18T09:41:27;4.63;;;2.73;;
12356;SDS011;6243;51.244;6.774;2023-03-18T09:44:05;3.40;;;2.70;;
12356;SDS011;6243;51.244;6.774;2023-03-18T09:46:43;3.07;;;2.77;;
12356;SDS011;6243;51.244;6.774;2023-03-18T09:52:24;3.30;;;2.60;;
12356;SDS011;6243;51.244;6.774;2023-03-18T09:54:55;4.63;;;2.90;;
12356;SDS011;6243;51.244;6.774;2023-03-18T09:57:27;5.47;;;2.70;;
12356;SDS011;6243;51.244;6.774;2023-03-18T09:59:57;3.37;;;2.53;;
12356;SDS011;6243;51.244;6.774;2023-03-18T10:02:29;3.60;;;2.70;;
12356;SDS011;6243;51.244;6.774;2023-03-18T10:05:00;3.47;;;2.60;;
12356;SDS011;6243;51.244;6.774;2023-03-18T10:07:30;4.50;;;2.87;;
12356;SDS011;6243;51.244;6.774;2023-03-18T10:10:04;4.37;;;3.23;;
12356;SDS011;6243;51.244;6.774;2023-03-18T10:12:33;3.80;;;2.97;;
12356;SDS011;6243;51.244;6.774;2023-03-18T10:15:02;2.80;;;2.60;;
12356;SDS011;6243;51.244;6.774;2023-03-18T10:17:37;4.20;;;2.50;;
12356;SDS011;6243;51.244;6.774;2023-03-18T10:20:12;4.83;;;2.63;;
12356;SDS011;6243;51.244;6.774;2023-03-18T10:22:48;3.73;;;3.03;;
12356;SDS011;6243;51.244;6.774;2023-03-18T10:25:20;4.20;;;2.77;;
12356;SDS011;6243;51.244;6.774;2023-03-18T10:27:53;3.03;;;2.73;;
12356;SDS011;6243;51.244;6.774;2023-03-18T10:30:33;3.33;;;2.40;;
12356;SDS011;6243;51.244;6.774;2023-03-18T10:33:09;5.00;;;2.60;;
12356;SDS011;6243;51.244;6.774;2023-03-18T10:35:44;3.00;;;2.50;;
12356;SDS011;6243;51.244;6.774;2023-03-18T10:38:17;2.50;;;2.20;;
12356;SDS011;6243;51.244;6.774;2023-03-18T10:40:46;3.07;;;2.60;;
12356;SDS011;6243;51.244;6.774;2023-03-18T10:43:13;2.50;;;2.30;;
12356;SDS011;6243;51.244;6.774;2023-03-18T10:45:42;4.23;;;2.57;;
12356;SDS011;6243;51.244;6.774;2023-03-18T10:48:10;5.17;;;2.83;;
12356;SDS011;6243;51.244;6.774;2023-03-18T10:50:40;3.97;;;2.33;;
12356;SDS011;6243;51.244;6.774;2023-03-18T10:53:15;2.40;;;2.10;;
12356;SDS011;6243;51.244;6.774;2023-03-18T10:55:49;3.17;;;2.63;;
12356;SDS011;6243;51.244;6.774;2023-03-18T10:58:21;2.87;;;2.30;;
12356;SDS011;6243;51.244;6.774;2023-03-18T11:00:46;4.03;;;2.53;;
12356;SDS011;6243;51.244;6.774;2023-03-18T11:03:15;4.07;;;2.50;;
12356;SDS011;6243;51.244;6.774;2023-03-18T11:05:46;2.60;;;2.10;;
12356;SDS011;6243;51.244;6.774;2023-03-18T11:08:26;2.40;;;2.20;;
12356;SDS011;6243;51.244;6.774;2023-03-18T11:10:57;3.50;;;2.07;;
12356;SDS011;6243;51.244;6.774;2023-03-18T11:13:26;2.60;;;1.90;;
12356;SDS011;6243;51.244;6.774;2023-03-18T11:15:51;2.20;;;2.00;;
12356;SDS011;6243;51.244;6.774;2023-03-18T11:18:20;2.57;;;2.33;;
12356;SDS011;6243;51.244;6.774;2023-03-18T11:20:50;2.27;;;1.97;;
12356;SDS011;6243;51.244;6.774;2023-03-18T11:23:27;2.47;;;2.20;;
12356;SDS011;6243;51.244;6.774;2023-03-18T11:25:55;3.97;;;2.53;;
12356;SDS011;6243;51.244;6.774;2023-03-18T11:28:21;4.47;;;2.50;;
12356;SDS011;6243;51.244;6.774;2023-03-18T11:30:48;2.10;;;1.83;;
12356;SDS011;6243;51.244;6.774;2023-03-18T11:33:15;3.83;;;2.00;;
12356;SDS011;6243;51.244;6.774;2023-03-18T11:35:43;2.63;;;2.00;;
12356;SDS011;6243;51.244;6.774;2023-03-18T11:38:14;5.13;;;2.20;;
12356;SDS011;6243;51.244;6.774;2023-03-18T11:40:42;2.77;;;1.83;;
12356;SDS011;6243;51.244;6.774;2023-03-18T11:43:13;4.27;;;2.13;;
12356;SDS011;6243;51.244;6.774;2023-03-18T11:45:43;2.80;;;2.30;;
12356;SDS011;6243;51.244;6.774;2023-03-18T11:48:15;2.60;;;2.40;;
12356;SDS011;6243;51.244;6.774;2023-03-18T11:50:54;4.13;;;2.47;;
12356;SDS011;6243;51.244;6.774;2023-03-18T11:53:29;3.30;;;2.73;;
12356;SDS011;6243;51.244;6.774;2023-03-18T11:56:05;2.53;;;2.30;;
12356;SDS011;6243;51.244;6.774;2023-03-18T12:01:34;2.30;;;1.90;;
12356;SDS011;6243;51.244;6.774;2023-03-18T12:04:12;4.20;;;2.17;;
12356;SDS011;6243;51.244;6.774;2023-03-18T12:06:53;2.83;;;1.93;;
12356;SDS011;6243;51.244;6.774;2023-03-18T12:09:30;2.73;;;2.03;;
12356;SDS011;6243;51.244;6.774;2023-03-18T12:12:06;3.23;;;2.07;;
12356;SDS011;6243;51.244;6.774;2023-03-18T12:14:44;2.73;;;2.27;;
12356;SDS011;6243;51.244;6.774;2023-03-18T12:17:18;3.70;;;2.03;;
12356;SDS011;6243;51.244;6.774;2023-03-18T12:20:17;2.90;;;2.30;;
12356;SDS011;6243;51.244;6.774;2023-03-18T12:23:01;2.37;;;2.03;;
12356;SDS011;6243;51.244;6.774;2023-03-18T12:25:36;4.17;;;2.37;;
12356;SDS011;6243;51.244;6.774;2023-03-18T12:28:14;2.40;;;2.20;;
12356;SDS011;6243;51.244;6.774;2023-03-18T12:30:48;3.83;;;2.43;;
12356;SDS011;6243;51.244;6.774;2023-03-18T12:33:27;3.90;;;2.57;;
12356;SDS011;6243;51.244;6.774;2023-03-18T12:36:07;3.20;;;2.53;;
12356;SDS011;6243;51.244;6.774;2023-03-18T12:38:52;5.07;;;2.87;;
12356;SDS011;6243;51.244;6.774;2023-03-18T12:41:31;3.30;;;2.50;;
12356;SDS011;6243;51.244;6.774;2023-03-18T12:44:09;2.57;;;2.30;;
12356;SDS011;6243;51.244;6.774;2023-03-18T12:46:43;2.97;;;2.57;;
12356;SDS011;6243;51.244;6.774;2023-03-18T12:49:13;3.03;;;2.67;;
12356;SDS011;6243;51.244;6.774;2023-03-18T12:51:44;2.77;;;2.53;;
12356;SDS011;6243;51.244;6.774;2023-03-18T12:54:17;2.77;;;2.07;;
12356;SDS011;6243;51.244;6.774;2023-03-18T12:56:48;3.37;;;1.93;;
12356;SDS011;6243;51.244;6.774;2023-03-18T12:59:19;2.80;;;2.10;;
12356;SDS011;6243;51.244;6.774;2023-03-18T13:01:52;3.43;;;2.30;;
12356;SDS011;6243;51.244;6.774;2023-03-18T13:04:35;2.87;;;2.00;;
12356;SDS011;6243;51.244;6.774;2023-03-18T13:07:04;3.13;;;2.10;;
12356;SDS011;6243;51.244;6.774;2023-03-18T13:09:36;2.57;;;2.10;;
12356;SDS011;6243;51.244;6.774;2023-03-18T13:12:08;4.10;;;2.10;;
12356;SDS011;6243;51.244;6.774;2023-03-18T13:14:43;2.40;;;2.07;;
12356;SDS011;6243;51.244;6.774;2023-03-18T13:17:19;3.63;;;2.40;;
12356;SDS011;6243;51.244;6.774;2023-03-18T13:19:50;2.83;;;2.00;;
12356;SDS011;6243;51.244;6.774;2023-03-18T13:22:26;5.30;;;2.30;;
12356;SDS011;6243;51.244;6.774;2023-03-18T13:25:10;2.40;;;2.20;;
12356;SDS011;6243;51.244;6.774;2023-03-18T13:27:47;4.57;;;2.03;;
12356;SDS011;6243;51.244;6.774;2023-03-18T13:30:23;2.50;;;1.60;;
12356;SDS011;6243;51.244;6.774;2023-03-18T13:33:06;1.70;;;1.60;;
12356;SDS011;6243;51.244;6.774;2023-03-18T13:35:51;1.90;;;1.67;;
12356;SDS011;6243;51.244;6.774;2023-03-18T13:44:10;3.13;;;1.90;;
12356;SDS011;6243;51.244;6.774;2023-03-18T13:46:39;3.17;;;1.50;;
12356;SDS011;6243;51.244;6.774;2023-03-18T13:49:11;2.33;;;2.07;;
12356;SDS011;6243;51.244;6.774;2023-03-18T13:51:50;4.33;;;2.13;;
12356;SDS011;6243;51.244;6.774;2023-03-18T13:54:19;6.67;;;2.60;;
12356;SDS011;6243;51.244;6.774;2023-03-18T13:56:46;7.13;;;2.97;;
12356;SDS011;6243;51.244;6.774;2023-03-18T14:08:02;8.00;;;4.23;;
12356;SDS011;6243;51.244;6.774;2023-03-18T14:10:29;5.97;;;3.47;;
12356;SDS011;6243;51.244;6.774;2023-03-18T14:12:54;4.80;;;3.20;;
12356;SDS011;6243;51.244;6.774;2023-03-18T14:15:36;4.87;;;2.80;;
12356;SDS011;6243;51.244;6.774;2023-03-18T14:18:18;2.93;;;2.57;;
12356;SDS011;6243;51.244;6.774;2023-03-18T14:20:51;2.67;;;2.37;;
12356;SDS011;6243;51.244;6.774;2023-03-18T14:23:18;3.63;;;2.80;;
12356;SDS011;6243;51.244;6.774;2023-03-18T14:25:58;4.10;;;2.50;;
12356;SDS011;6243;51.244;6.774;2023-03-18T14:28:25;3.77;;;2.67;;
12356;SDS011;6243;51.244;6.774;2023-03-18T14:30:57;4.40;;;2.30;;
12356;SDS011;6243;51.244;6.774;2023-03-18T14:37:14;3.57;;;2.23;;
12356;SDS011;6243;51.244;6.774;2023-03-18T14:39:44;3.30;;;2.20;;
12356;SDS011;6243;51.244;6.774;2023-03-18T14:42:15;4.00;;;2.00;;
12356;SDS011;6243;51.244;6.774;2023-03-18T14:44:52;3.20;;;2.37;;
12356;SDS011;6243;51.244;6.774;2023-03-18T14:47:22;2.73;;;2.03;;
12356;SDS011;6243;51.244;6.774;2023-03-18T14:49:51;3.50;;;2.00;;
12356;SDS011;6243;51.244;6.774;2023-03-18T14:52:24;2.37;;;1.70;;
12356;SDS011;6243;51.244;6.774;2023-03-18T14:54:53;5.67;;;2.10;;
12356;SDS011;6243;51.244;6.774;2023-03-18T14:57:21;2.80;;;1.90;;
12356;SDS011;6243;51.244;6.774;2023-03-18T14:59:46;4.97;;;2.00;;
12356;SDS011;6243;51.244;6.774;2023-03-18T15:02:14;3.43;;;1.60;;
12356;SDS011;6243;51.244;6.774;2023-03-18T15:04:49;5.20;;;2.13;;
12356;SDS011;6243;51.244;6.774;2023-03-18T15:07:16;3.47;;;2.13;;
12356;SDS011;6243;51.244;6.774;2023-03-18T15:09:42;2.83;;;2.00;;
12356;SDS011;6243;51.244;6.774;2023-03-18T15:12:16;4.00;;;1.83;;
12356;SDS011;6243;51.244;6.774;2023-03-18T15:14:43;3.33;;;1.80;;
12356;SDS011;6243;51.244;6.774;2023-03-18T15:17:11;2.27;;;2.07;;
12356;SDS011;6243;51.244;6.774;2023-03-18T15:19:40;2.63;;;1.70;;
12356;SDS011;6243;51.244;6.774;2023-03-18T15:22:06;3.87;;;2.17;;
12356;SDS011;6243;51.244;6.774;2023-03-18T15:24:41;2.77;;;1.90;;
12356;SDS011;6243;51.244;6.774;2023-03-18T15:27:10;2.73;;;1.97;;
12356;SDS011;6243;51.244;6.774;2023-03-18T15:29:42;2.87;;;2.10;;
12356;SDS011;6243;51.244;6.774;2023-03-18T15:32:15;2.20;;;1.63;;